This is the latest recevied weather packets stored in our database for station/object KD0MAC. If no packets are shown the sender has not sent any weather packets the latest 10 day(s).
| Time | Temp. | Humidity | Pressure | Rain* | Wind** | Luminosity | Snow |
|---|---|---|---|---|---|---|---|
| 1788281530 | 32.78° C | 44% | 1015.9 hPa | 0 mm | - | 508 W/m² | - |
| 1788281229 | 32.22° C | 44% | 1015.9 hPa | 0 mm | - | 510 W/m² | - |
| 1788280930 | 32.22° C | 45% | 1015.9 hPa | 0 mm | - | 502 W/m² | - |
| 1788280631 | 32.22° C | 43% | 1015.9 hPa | 0 mm | - | 479 W/m² | - |
| 1788280330 | 31.11° C | 44% | 1015.9 hPa | 0 mm | - | 477 W/m² | - |
| 1788280029 | 31.67° C | 42% | 1015.9 hPa | 0 mm | - | 461 W/m² | - |
| 1788279429 | 30.56° C | 46% | 1015.9 hPa | 0 mm | - | 455 W/m² | - |
| 1788279129 | 31.11° C | 48% | 1015.9 hPa | 0 mm | - | 476 W/m² | - |
| 1788278829 | 30.56° C | 48% | 1015.9 hPa | 0 mm | - | 270 W/m² | - |
| 1788278530 | 30.56° C | 49% | 1015.9 hPa | 0 mm | - | 428 W/m² | - |
| 1788278230 | 30° C | 51% | 1015.9 hPa | 0 mm | - | 414 W/m² | - |
| 1788277930 | 30° C | 52% | 1015.9 hPa | 0 mm | - | 123 W/m² | - |
| 1788277630 | 30° C | 50% | 1015.9 hPa | 0 mm | - | 399 W/m² | - |
| 1788277330 | 30° C | 51% | 1015.9 hPa | 0 mm | - | 160 W/m² | - |
| 1788277030 | 29.44° C | 51% | 1015.9 hPa | 0 mm | - | 370 W/m² | - |
| 1788276730 | 29.44° C | 52% | 1015.9 hPa | 0 mm | - | 115 W/m² | - |
| 1788276429 | 28.89° C | 55% | 1015.9 hPa | 0 mm | - | 353 W/m² | - |
| 1788276130 | 29.44° C | 53% | 1015.9 hPa | 0 mm | - | 276 W/m² | - |
| 1788275830 | 28.89° C | 56% | 1015.9 hPa | 0 mm | - | 361 W/m² | - |
| 1788275530 | 28.33° C | 58% | 1015.9 hPa | 0 mm | - | 347 W/m² | - |
| 1788275230 | 28.33° C | 58% | 1015.9 hPa | 0 mm | - | 257 W/m² | - |
| 1788274930 | 27.78° C | 57% | 1015.9 hPa | 0 mm | - | 303 W/m² | - |
| 1788274630 | 27.78° C | 58% | 1015.9 hPa | 0 mm | - | 226 W/m² | - |
| 1788274329 | 27.22° C | 61% | 1015.9 hPa | 0 mm | - | 290 W/m² | - |
| 1788274031 | 27.22° C | 61% | 1015.9 hPa | 0 mm | - | 276 W/m² | - |
* Rain latest hour (hover to see other rain measurements)
** Current wind speed in m/s (hover to see current wind gust speed)